Aeroporto :
LOGIN :

Iscrizione | Disclaimer

   EN    FR    IT 

 










Sommario :    VFR   VFR Marginale   IFR   IFR Intensivo   IFR Molto Intensivo
Visibilità : 
Base nubi : 
>= 8 km
>= 3000ft
5 / 8 km
1000 / 3000 ft
1500m / 5 km
500 / 1000 ft
800 / 1500m
200 / 500 ft
< 800m
< 200 ft
Simboli :   Temporali  Nebbia  Neve Forte  Precipitazioni Forti  Vento > 20 kt
SIGMETs :   Varie  Temporali  Ghiacco  Turbolenza  Onda orograficha  Ceneri Vulcaniche







- Altitudine del aeroporto : 1649 ft
- Codice IATA : HHN


EDFH - Frankfurt-Hahn Rhineland-Palatinate

ULTIMO METAR :
  • 241250Z 11008KT 040V210 CAVOK 26/07 Q1022

METARs OBSOLETI :
  • 241220Z 11010KT 050V190 CAVOK 25/08 Q1022
  • 241150Z 10008KT 050V160 CAVOK 25/09 Q1022
  • 241120Z 12007KT 060V170 CAVOK 25/10 Q1022
  • 241050Z 10010KT 020V130 CAVOK 24/10 Q1022
  • 241020Z 14007KT 120V190 CAVOK 24/11 Q1022

TAF TAF EDFH
Valido dal 24 a 12 ore il 25 a 12 ore UTC


241100Z 2412/2512 12005KT CAVOK
Nessun NOTAM noto per questo aeroporto.



MetMap, La meteo Aeronautica in un colpo d'occhio ! - Copyright ORBIFLY Dicembre 2007 - Disclaimer

ORBIFLY MET'MAP TEAM :

Programmazione e sviluppo : Alexandra Zaïnal
Concezione e sviluppo : Baudouin d'Aumeries
Co-Programmazione e sviluppo : Marc-Olivier Méhu
Supporto tecnico e logistico : Manuel Goepfert
Aiuto per la traduzione : Arnaldo La Scala

Contatto : metmap@orbifly.com




FONTI E CREDITI :

   NOAA